Sarah Desgagnes — XJAB — position and weather

sailwx.info

Track history (hours):
 
Tides and Currents Weather Stations Pressure Air Temp Water Temp Dewpoint Dewpoint Depression Visibility Wind Speed Wind Dir Waves Ship Positions

Sarah Desgagnes

Last reported at 2014-Sep-01 13:33 UTC. Time now 2014-Sep-01 14:06 UTC.
Position N 44°55' W 075°07'.

Length 148 m; draft 6.2 m.

Type: Tanker. MMSI: 316012308.

Date/timePositionNaut miles runAvg speedWind from/ knotsBaromVisibWave heightAir tempDewpointWater temp
2014-Sep-01 13:33N 44°55' W 075°07'1010.1
2014-Sep-01 12:33N 44°50' W 075°19'6 5.9
2014-Sep-01 11:33N 44°46' W 075°25'1312.8
2014-Sep-01 10:33N 44°37' W 075°38'1211.6
2014-Sep-01 09:33N 44°28' W 075°48'1111.3
2014-Sep-01 08:33N 44°19' W 075°58'1010.2
2014-Sep-01 07:33N 44°13' W 076°10'1312.7
2014-Sep-01 06:34N 44°06' W 076°24'1414.5
2014-Sep-01 05:34N 43°54' W 076°34'8114.8
2014-Sep-01 00:05N 43°32' W 078°22'814.9
2014-Aug-31 23:34N 43°31' W 078°33'1514.8
2014-Aug-31 22:33N 43°27' W 078°53'1514.7
2014-Aug-31 21:34N 43°24' W 079°12'1514.5
2014-Aug-31 20:33N 43°21' W 079°32'2 0.1
2014-Aug-30 16:32N 43°21' W 079°34'1414.2
2014-Aug-30 15:31N 43°24' W 079°15'1414.0
2014-Aug-30 14:34N 43°28' W 078°57'1413.8
2014-Aug-30 13:33N 43°31' W 078°39'1413.5
2014-Aug-30 12:30N 43°35' W 078°20'8013.4
2014-Aug-30 06:33N 43°59' W 076°35'1313.2
2014-Aug-30 05:33N 44°08' W 076°21'1211.5
2014-Aug-30 04:33N 44°14' W 076°08'9 8.7
2014-Aug-30 03:33N 44°19' W 075°58'10 9.6
2014-Aug-30 02:33N 44°26' W 075°49'1110.9
2014-Aug-30 01:33N 44°35' W 075°41'1110.7
2014-Aug-30 00:33N 44°43' W 075°30'1010.1
2014-Aug-29 23:33N 44°49' W 075°19'6 6.4
2014-Aug-29 22:33N 44°53' W 075°12'1110.9
2014-Aug-29 21:33N 44°58' W 074°58'5 5.4
2014-Aug-29 20:33N 44°59' W 074°50'3 3.3
2014-Aug-29 19:33N 44°59' W 074°46'8 7.6
2014-Aug-29 18:33N 45°02' W 074°36'8 8.1
2014-Aug-29 17:33N 45°08' W 074°27'1010.4
2014-Aug-29 16:33N 45°14' W 074°15'9 9.3
2014-Aug-29 15:33N 45°13' W 074°02'6 6.4
2014-Aug-29 14:33N 45°18' W 073°56'1 1.1
2014-Aug-29 13:33N 45°19' W 073°55'9 8.7
2014-Aug-29 12:33N 45°24' W 073°45'6 6.1
2014-Aug-29 11:33N 45°24' W 073°36'2 2.4
2014-Aug-29 10:33N 45°24' W 073°33'5 5.1
2014-Aug-29 09:33N 45°29' W 073°31'1 1.2
2014-Aug-29 08:33N 45°31' W 073°31'6 6.1
2014-Aug-29 07:33N 45°37' W 073°30'0 0.0
2014-Aug-29 06:31N 45°37' W 073°30'0 0.0
2014-Aug-29 05:31N 45°37' W 073°30'0 0.0
2014-Aug-29 04:31N 45°37' W 073°30'0 0.0
2014-Aug-29 03:31N 45°37' W 073°30'0 0.0
2014-Aug-29 02:31N 45°37' W 073°30'0 0.0
2014-Aug-29 01:31N 45°37' W 073°30'0 0.0
2014-Aug-29 00:31N 45°37' W 073°30'0 0.0
2014-Aug-28 23:31N 45°37' W 073°30'0 0.0
2014-Aug-28 22:31N 45°37' W 073°30'0 0.0
2014-Aug-28 21:31N 45°37' W 073°30'0 0.0
2014-Aug-28 20:31N 45°37' W 073°30'0 0.0
2014-Aug-28 19:31N 45°37' W 073°30'0 0.0
2014-Aug-28 18:31N 45°37' W 073°30'0 0.0
2014-Aug-28 17:31N 45°37' W 073°30'0 0.0
2014-Aug-28 16:31N 45°37' W 073°30'0 0.0
2014-Aug-28 15:31N 45°37' W 073°30'0 0.0
2014-Aug-28 14:31N 45°37' W 073°30'0 0.0
2014-Aug-28 13:31N 45°37' W 073°30'0 0.0
2014-Aug-28 12:31N 45°37' W 073°30'0 0.0
2014-Aug-28 11:31N 45°37' W 073°30'0 0.0
2014-Aug-28 10:31N 45°37' W 073°30'0 0.0
2014-Aug-28 09:31N 45°37' W 073°30'0 0.0
2014-Aug-28 08:31N 45°37' W 073°30'0 0.0
2014-Aug-28 07:31N 45°37' W 073°30'0 0.0
2014-Aug-28 06:31N 45°37' W 073°30'0 0.0
2014-Aug-28 05:31N 45°37' W 073°30'0 0.0
2014-Aug-28 04:31N 45°37' W 073°30'0 0.0
2014-Aug-28 03:31N 45°37' W 073°30'0 0.0
2014-Aug-28 02:31N 45°37' W 073°30'0 0.0
2014-Aug-28 01:31N 45°37' W 073°30'0 0.0
2014-Aug-28 00:31N 45°37' W 073°30'0 0.0
2014-Aug-27 23:28N 45°37' W 073°30'0 0.0
2014-Aug-27 22:31N 45°37' W 073°30'0 0.0
2014-Aug-27 21:31N 45°37' W 073°30'0 0.0
2014-Aug-27 20:31N 45°37' W 073°30'0 0.1
2014-Aug-27 19:33N 45°37' W 073°30'0 0.3
2014-Aug-27 18:31N 45°37' W 073°30'0 0.0
2014-Aug-27 17:31N 45°37' W 073°30'0 0.0
2014-Aug-27 16:31N 45°37' W 073°30'0 0.0
2014-Aug-27 15:31N 45°37' W 073°30'0 0.0
2014-Aug-27 14:31N 45°37' W 073°30'0 0.0
2014-Aug-27 13:31N 45°37' W 073°30'0 0.0
2014-Aug-27 12:31N 45°37' W 073°30'0 0.0
2014-Aug-27 11:31N 45°37' W 073°30'0 0.0
2014-Aug-27 10:31N 45°37' W 073°30'0 0.0
2014-Aug-27 09:31N 45°37' W 073°30'0 0.0
2014-Aug-27 08:28N 45°37' W 073°30'0 0.0
2014-Aug-27 07:31N 45°37' W 073°30'0 0.0
2014-Aug-27 06:31N 45°37' W 073°30'0 0.0
2014-Aug-27 05:31N 45°37' W 073°30'0 0.0
2014-Aug-27 04:31N 45°37' W 073°30'0 0.0
2014-Aug-27 03:31N 45°37' W 073°30'0 0.0
2014-Aug-27 02:31N 45°37' W 073°30'0 0.0
2014-Aug-27 01:31N 45°37' W 073°30'0 0.0
2014-Aug-27 00:31N 45°37' W 073°30'0 0.0
2014-Aug-26 23:31N 45°37' W 073°30'0 0.0
2014-Aug-26 22:31N 45°37' W 073°30'0 0.0
2014-Aug-26 21:28N 45°37' W 073°30'0 0.0
2014-Aug-26 20:31N 45°37' W 073°30'0 0.0
2014-Aug-26 19:31N 45°37' W 073°30'0 0.0
2014-Aug-26 18:31N 45°37' W 073°30'0 0.0
2014-Aug-26 17:31N 45°37' W 073°30'0 0.0
2014-Aug-26 16:31N 45°37' W 073°30'0 0.0
2014-Aug-26 15:31N 45°37' W 073°30'0 0.0
2014-Aug-26 14:31N 45°37' W 073°30'0 0.0
2014-Aug-26 13:31N 45°37' W 073°30'0 0.0
2014-Aug-26 12:31N 45°37' W 073°30'0 0.0
2014-Aug-26 11:31N 45°37' W 073°30'0 0.0
2014-Aug-26 10:32N 45°37' W 073°30'0 0.0
2014-Aug-26 09:32N 45°37' W 073°30'0 0.0
2014-Aug-26 08:29N 45°37' W 073°30'0 0.0
2014-Aug-26 07:32N 45°37' W 073°30'0 0.0
2014-Aug-26 06:32N 45°37' W 073°30'0 0.0
2014-Aug-26 05:29N 45°37' W 073°30'0 0.0
2014-Aug-26 04:29N 45°37' W 073°30'0 0.0
2014-Aug-26 03:32N 45°37' W 073°30'0 0.0
2014-Aug-26 02:32N 45°37' W 073°30'0 0.0
2014-Aug-26 01:32N 45°37' W 073°30'0 0.0
2014-Aug-26 00:32N 45°37' W 073°30'0 0.0
2014-Aug-25 23:32N 45°37' W 073°30'0 0.0
2014-Aug-25 22:32N 45°37' W 073°30'0 0.0
2014-Aug-25 21:32N 45°37' W 073°30'0 0.0
2014-Aug-25 20:32N 45°37' W 073°30'0 0.0
2014-Aug-25 19:32N 45°37' W 073°30'0 0.0
2014-Aug-25 18:32N 45°37' W 073°30'0 0.0
2014-Aug-25 17:32N 45°37' W 073°30'0 0.0
2014-Aug-25 16:32N 45°37' W 073°30'0 0.0
2014-Aug-25 15:32N 45°37' W 073°30'0 0.0
2014-Aug-25 14:32N 45°37' W 073°30'0 0.0
2014-Aug-25 13:32N 45°37' W 073°30'0 0.0
2014-Aug-25 12:32N 45°37' W 073°30'0 0.0
2014-Aug-25 11:32N 45°37' W 073°30'0 0.0
2014-Aug-25 10:32N 45°37' W 073°30'0 0.0
2014-Aug-25 09:32N 45°37' W 073°30'0 0.0
2014-Aug-25 08:32N 45°37' W 073°30'0 0.0
2014-Aug-25 07:32N 45°37' W 073°30'0 0.0
2014-Aug-25 06:32N 45°37' W 073°30'0 0.0
2014-Aug-25 05:32N 45°37' W 073°30'0 0.0
2014-Aug-25 04:32N 45°37' W 073°30'0 0.0
2014-Aug-25 03:32N 45°37' W 073°30'0 0.0
2014-Aug-25 02:32N 45°37' W 073°30'0 0.0
2014-Aug-25 01:32N 45°37' W 073°30'0 0.0
2014-Aug-25 00:32N 45°37' W 073°30'0 0.0
2014-Aug-24 23:32N 45°37' W 073°30'0 0.0
2014-Aug-24 22:32N 45°37' W 073°30'0 0.0
2014-Aug-24 21:26N 45°37' W 073°30'0 0.0
2014-Aug-24 20:32N 45°37' W 073°30'0 0.0
2014-Aug-24 19:32N 45°37' W 073°30'0 0.0
2014-Aug-24 18:32N 45°37' W 073°30'0 0.0
2014-Aug-24 17:26N 45°37' W 073°30'0 0.0
2014-Aug-24 16:32N 45°37' W 073°30'0 0.0
2014-Aug-24 15:32N 45°37' W 073°30'0 0.0
2014-Aug-24 14:32N 45°37' W 073°30'0 0.0
2014-Aug-24 13:32N 45°37' W 073°30'0 0.0
2014-Aug-24 12:32N 45°37' W 073°30'0 0.0
2014-Aug-24 11:32N 45°37' W 073°30'0 0.0
2014-Aug-24 10:32N 45°37' W 073°30'0 0.0
2014-Aug-24 09:32N 45°37' W 073°30'0 0.0
2014-Aug-24 08:32N 45°37' W 073°30'0 0.0
2014-Aug-24 07:32N 45°37' W 073°30'0 0.0
2014-Aug-24 06:32N 45°37' W 073°30'0 0.0
2014-Aug-24 05:32N 45°37' W 073°30'0 0.0
2014-Aug-24 04:32N 45°37' W 073°30'0 0.0
2014-Aug-24 03:32N 45°37' W 073°30'0 0.0
2014-Aug-24 02:32N 45°37' W 073°30'0 0.0
2014-Aug-24 01:32N 45°37' W 073°30'0 0.0
2014-Aug-24 00:32N 45°37' W 073°30'0 0.0
2014-Aug-23 23:32N 45°37' W 073°30'0 0.0
2014-Aug-23 22:32N 45°37' W 073°30'0 0.0
2014-Aug-23 21:32N 45°37' W 073°30'0 0.0
2014-Aug-23 20:32N 45°37' W 073°30'0 0.0
2014-Aug-23 19:32N 45°37' W 073°30'0 0.0
2014-Aug-23 03:32N 45°37' W 073°30'0 0.0
2014-Aug-23 02:32N 45°37' W 073°30'0 0.0
2014-Aug-23 01:32N 45°37' W 073°30'1 0.9
2014-Aug-23 00:33N 45°38' W 073°30'0 0.0
2014-Aug-22 23:33N 45°38' W 073°30'0 0.0
2014-Aug-22 22:33N 45°38' W 073°29'0 0.0
2014-Aug-22 21:33N 45°38' W 073°30'0 0.0
2014-Aug-22 20:33N 45°38' W 073°30'0 0.0
2014-Aug-22 19:29N 45°38' W 073°30'0 0.0
2014-Aug-22 18:33N 45°38' W 073°30'0 0.0
2014-Aug-22 17:33N 45°38' W 073°30'0 0.0
2014-Aug-22 16:29N 45°38' W 073°30'0 0.0
2014-Aug-22 15:33N 45°38' W 073°30'0 0.0
2014-Aug-22 14:33N 45°38' W 073°30'  
Track history (hours):
 
Tides and Currents Weather Stations Pressure Air Temp Water Temp Dewpoint Dewpoint Depression Visibility Wind Speed Wind Dir Waves Ship Positions

Sarah Desgagnes

Last reported at 2014-Sep-01 13:33 UTC. Time now 2014-Sep-01 14:06 UTC.
Position N 44°55' W 075°07'.

Length 148 m; draft 6.2 m.

Type: Tanker. MMSI: 316012308.

Date/timePositionNaut miles runAvg speedWind from/ knotsBaromVisibWave heightAir tempDewpointWater temp
2014-Sep-01 13:33N 44°55' W 075°07'1010.1
2014-Sep-01 12:33N 44°50' W 075°19'6 5.9
2014-Sep-01 11:33N 44°46' W 075°25'1312.8
2014-Sep-01 10:33N 44°37' W 075°38'1211.6
2014-Sep-01 09:33N 44°28' W 075°48'1111.3
2014-Sep-01 08:33N 44°19' W 075°58'1010.2
2014-Sep-01 07:33N 44°13' W 076°10'1312.7
2014-Sep-01 06:34N 44°06' W 076°24'1414.5
2014-Sep-01 05:34N 43°54' W 076°34'8114.8
2014-Sep-01 00:05N 43°32' W 078°22'814.9
2014-Aug-31 23:34N 43°31' W 078°33'1514.8
2014-Aug-31 22:33N 43°27' W 078°53'1514.7
2014-Aug-31 21:34N 43°24' W 079°12'1514.5
2014-Aug-31 20:33N 43°21' W 079°32'2 0.1
2014-Aug-30 16:32N 43°21' W 079°34'1414.2
2014-Aug-30 15:31N 43°24' W 079°15'1414.0
2014-Aug-30 14:34N 43°28' W 078°57'1413.8
2014-Aug-30 13:33N 43°31' W 078°39'1413.5
2014-Aug-30 12:30N 43°35' W 078°20'8013.4
2014-Aug-30 06:33N 43°59' W 076°35'1313.2
2014-Aug-30 05:33N 44°08' W 076°21'1211.5
2014-Aug-30 04:33N 44°14' W 076°08'9 8.7
2014-Aug-30 03:33N 44°19' W 075°58'10 9.6
2014-Aug-30 02:33N 44°26' W 075°49'1110.9
2014-Aug-30 01:33N 44°35' W 075°41'1110.7
2014-Aug-30 00:33N 44°43' W 075°30'1010.1
2014-Aug-29 23:33N 44°49' W 075°19'6 6.4
2014-Aug-29 22:33N 44°53' W 075°12'1110.9
2014-Aug-29 21:33N 44°58' W 074°58'5 5.4
2014-Aug-29 20:33N 44°59' W 074°50'3 3.3
2014-Aug-29 19:33N 44°59' W 074°46'8 7.6
2014-Aug-29 18:33N 45°02' W 074°36'8 8.1
2014-Aug-29 17:33N 45°08' W 074°27'1010.4
2014-Aug-29 16:33N 45°14' W 074°15'9 9.3
2014-Aug-29 15:33N 45°13' W 074°02'6 6.4
2014-Aug-29 14:33N 45°18' W 073°56'1 1.1
2014-Aug-29 13:33N 45°19' W 073°55'9 8.7
2014-Aug-29 12:33N 45°24' W 073°45'6 6.1
2014-Aug-29 11:33N 45°24' W 073°36'2 2.4
2014-Aug-29 10:33N 45°24' W 073°33'5 5.1
2014-Aug-29 09:33N 45°29' W 073°31'1 1.2
2014-Aug-29 08:33N 45°31' W 073°31'6 6.1
2014-Aug-29 07:33N 45°37' W 073°30'0 0.0
2014-Aug-29 06:31N 45°37' W 073°30'0 0.0
2014-Aug-29 05:31N 45°37' W 073°30'0 0.0
2014-Aug-29 04:31N 45°37' W 073°30'0 0.0
2014-Aug-29 03:31N 45°37' W 073°30'0 0.0
2014-Aug-29 02:31N 45°37' W 073°30'0 0.0
2014-Aug-29 01:31N 45°37' W 073°30'0 0.0
2014-Aug-29 00:31N 45°37' W 073°30'0 0.0
2014-Aug-28 23:31N 45°37' W 073°30'0 0.0
2014-Aug-28 22:31N 45°37' W 073°30'0 0.0
2014-Aug-28 21:31N 45°37' W 073°30'0 0.0
2014-Aug-28 20:31N 45°37' W 073°30'0 0.0
2014-Aug-28 19:31N 45°37' W 073°30'0 0.0
2014-Aug-28 18:31N 45°37' W 073°30'0 0.0
2014-Aug-28 17:31N 45°37' W 073°30'0 0.0
2014-Aug-28 16:31N 45°37' W 073°30'0 0.0
2014-Aug-28 15:31N 45°37' W 073°30'0 0.0
2014-Aug-28 14:31N 45°37' W 073°30'0 0.0
2014-Aug-28 13:31N 45°37' W 073°30'0 0.0
2014-Aug-28 12:31N 45°37' W 073°30'0 0.0
2014-Aug-28 11:31N 45°37' W 073°30'0 0.0
2014-Aug-28 10:31N 45°37' W 073°30'0 0.0
2014-Aug-28 09:31N 45°37' W 073°30'0 0.0
2014-Aug-28 08:31N 45°37' W 073°30'0 0.0
2014-Aug-28 07:31N 45°37' W 073°30'0 0.0
2014-Aug-28 06:31N 45°37' W 073°30'0 0.0
2014-Aug-28 05:31N 45°37' W 073°30'0 0.0
2014-Aug-28 04:31N 45°37' W 073°30'0 0.0
2014-Aug-28 03:31N 45°37' W 073°30'0 0.0
2014-Aug-28 02:31N 45°37' W 073°30'0 0.0
2014-Aug-28 01:31N 45°37' W 073°30'0 0.0
2014-Aug-28 00:31N 45°37' W 073°30'0 0.0
2014-Aug-27 23:28N 45°37' W 073°30'0 0.0
2014-Aug-27 22:31N 45°37' W 073°30'0 0.0
2014-Aug-27 21:31N 45°37' W 073°30'0 0.0
2014-Aug-27 20:31N 45°37' W 073°30'0 0.1
2014-Aug-27 19:33N 45°37' W 073°30'0 0.3
2014-Aug-27 18:31N 45°37' W 073°30'0 0.0
2014-Aug-27 17:31N 45°37' W 073°30'0 0.0
2014-Aug-27 16:31N 45°37' W 073°30'0 0.0
2014-Aug-27 15:31N 45°37' W 073°30'0 0.0
2014-Aug-27 14:31N 45°37' W 073°30'0 0.0
2014-Aug-27 13:31N 45°37' W 073°30'0 0.0
2014-Aug-27 12:31N 45°37' W 073°30'0 0.0
2014-Aug-27 11:31N 45°37' W 073°30'0 0.0
2014-Aug-27 10:31N 45°37' W 073°30'0 0.0
2014-Aug-27 09:31N 45°37' W 073°30'0 0.0
2014-Aug-27 08:28N 45°37' W 073°30'0 0.0
2014-Aug-27 07:31N 45°37' W 073°30'0 0.0
2014-Aug-27 06:31N 45°37' W 073°30'0 0.0
2014-Aug-27 05:31N 45°37' W 073°30'0 0.0
2014-Aug-27 04:31N 45°37' W 073°30'0 0.0
2014-Aug-27 03:31N 45°37' W 073°30'0 0.0
2014-Aug-27 02:31N 45°37' W 073°30'0 0.0
2014-Aug-27 01:31N 45°37' W 073°30'0 0.0
2014-Aug-27 00:31N 45°37' W 073°30'0 0.0
2014-Aug-26 23:31N 45°37' W 073°30'0 0.0
2014-Aug-26 22:31N 45°37' W 073°30'0 0.0
2014-Aug-26 21:28N 45°37' W 073°30'0 0.0
2014-Aug-26 20:31N 45°37' W 073°30'0 0.0
2014-Aug-26 19:31N 45°37' W 073°30'0 0.0
2014-Aug-26 18:31N 45°37' W 073°30'0 0.0
2014-Aug-26 17:31N 45°37' W 073°30'0 0.0
2014-Aug-26 16:31N 45°37' W 073°30'0 0.0
2014-Aug-26 15:31N 45°37' W 073°30'0 0.0
2014-Aug-26 14:31N 45°37' W 073°30'0 0.0
2014-Aug-26 13:31N 45°37' W 073°30'0 0.0
2014-Aug-26 12:31N 45°37' W 073°30'0 0.0
2014-Aug-26 11:31N 45°37' W 073°30'0 0.0
2014-Aug-26 10:32N 45°37' W 073°30'0 0.0
2014-Aug-26 09:32N 45°37' W 073°30'0 0.0
2014-Aug-26 08:29N 45°37' W 073°30'0 0.0
2014-Aug-26 07:32N 45°37' W 073°30'0 0.0
2014-Aug-26 06:32N 45°37' W 073°30'0 0.0
2014-Aug-26 05:29N 45°37' W 073°30'0 0.0
2014-Aug-26 04:29N 45°37' W 073°30'0 0.0
2014-Aug-26 03:32N 45°37' W 073°30'0 0.0
2014-Aug-26 02:32N 45°37' W 073°30'0 0.0
2014-Aug-26 01:32N 45°37' W 073°30'0 0.0
2014-Aug-26 00:32N 45°37' W 073°30'0 0.0
2014-Aug-25 23:32N 45°37' W 073°30'0 0.0
2014-Aug-25 22:32N 45°37' W 073°30'0 0.0
2014-Aug-25 21:32N 45°37' W 073°30'0 0.0
2014-Aug-25 20:32N 45°37' W 073°30'0 0.0
2014-Aug-25 19:32N 45°37' W 073°30'0 0.0
2014-Aug-25 18:32N 45°37' W 073°30'0 0.0
2014-Aug-25 17:32N 45°37' W 073°30'0 0.0
2014-Aug-25 16:32N 45°37' W 073°30'0 0.0
2014-Aug-25 15:32N 45°37' W 073°30'0 0.0
2014-Aug-25 14:32N 45°37' W 073°30'0 0.0
2014-Aug-25 13:32N 45°37' W 073°30'0 0.0
2014-Aug-25 12:32N 45°37' W 073°30'0 0.0
2014-Aug-25 11:32N 45°37' W 073°30'0 0.0
2014-Aug-25 10:32N 45°37' W 073°30'0 0.0
2014-Aug-25 09:32N 45°37' W 073°30'0 0.0
2014-Aug-25 08:32N 45°37' W 073°30'0 0.0
2014-Aug-25 07:32N 45°37' W 073°30'0 0.0
2014-Aug-25 06:32N 45°37' W 073°30'0 0.0
2014-Aug-25 05:32N 45°37' W 073°30'0 0.0
2014-Aug-25 04:32N 45°37' W 073°30'0 0.0
2014-Aug-25 03:32N 45°37' W 073°30'0 0.0
2014-Aug-25 02:32N 45°37' W 073°30'0 0.0
2014-Aug-25 01:32N 45°37' W 073°30'0 0.0
2014-Aug-25 00:32N 45°37' W 073°30'0 0.0
2014-Aug-24 23:32N 45°37' W 073°30'0 0.0
2014-Aug-24 22:32N 45°37' W 073°30'0 0.0
2014-Aug-24 21:26N 45°37' W 073°30'0 0.0
2014-Aug-24 20:32N 45°37' W 073°30'0 0.0
2014-Aug-24 19:32N 45°37' W 073°30'0 0.0
2014-Aug-24 18:32N 45°37' W 073°30'0 0.0
2014-Aug-24 17:26N 45°37' W 073°30'0 0.0
2014-Aug-24 16:32N 45°37' W 073°30'0 0.0
2014-Aug-24 15:32N 45°37' W 073°30'0 0.0
2014-Aug-24 14:32N 45°37' W 073°30'0 0.0
2014-Aug-24 13:32N 45°37' W 073°30'0 0.0
2014-Aug-24 12:32N 45°37' W 073°30'0 0.0
2014-Aug-24 11:32N 45°37' W 073°30'0 0.0
2014-Aug-24 10:32N 45°37' W 073°30'0 0.0
2014-Aug-24 09:32N 45°37' W 073°30'0 0.0
2014-Aug-24 08:32N 45°37' W 073°30'0 0.0
2014-Aug-24 07:32N 45°37' W 073°30'0 0.0
2014-Aug-24 06:32N 45°37' W 073°30'0 0.0
2014-Aug-24 05:32N 45°37' W 073°30'0 0.0
2014-Aug-24 04:32N 45°37' W 073°30'0 0.0
2014-Aug-24 03:32N 45°37' W 073°30'0 0.0
2014-Aug-24 02:32N 45°37' W 073°30'0 0.0
2014-Aug-24 01:32N 45°37' W 073°30'0 0.0
2014-Aug-24 00:32N 45°37' W 073°30'0 0.0
2014-Aug-23 23:32N 45°37' W 073°30'0 0.0
2014-Aug-23 22:32N 45°37' W 073°30'0 0.0
2014-Aug-23 21:32N 45°37' W 073°30'0 0.0
2014-Aug-23 20:32N 45°37' W 073°30'0 0.0
2014-Aug-23 19:32N 45°37' W 073°30'0 0.0
2014-Aug-23 03:32N 45°37' W 073°30'0 0.0
2014-Aug-23 02:32N 45°37' W 073°30'0 0.0
2014-Aug-23 01:32N 45°37' W 073°30'1 0.9
2014-Aug-23 00:33N 45°38' W 073°30'0 0.0
2014-Aug-22 23:33N 45°38' W 073°30'0 0.0
2014-Aug-22 22:33N 45°38' W 073°29'0 0.0
2014-Aug-22 21:33N 45°38' W 073°30'0 0.0
2014-Aug-22 20:33N 45°38' W 073°30'0 0.0
2014-Aug-22 19:29N 45°38' W 073°30'0 0.0
2014-Aug-22 18:33N 45°38' W 073°30'0 0.0
2014-Aug-22 17:33N 45°38' W 073°30'0 0.0
2014-Aug-22 16:29N 45°38' W 073°30'0 0.0
2014-Aug-22 15:33N 45°38' W 073°30'0 0.0
2014-Aug-22 14:33N 45°38' W 073°30'  

Dump ship's entire track history